sensor_id;sensor_type;location;lat;lon;timestamp;temperature;humidity
13256;DHT22;37913;48.370;10.930;2023-01-24T00:01:54;0.80;99.90
13256;DHT22;37913;48.370;10.930;2023-01-24T00:04:21;0.80;99.90
13256;DHT22;37913;48.370;10.930;2023-01-24T00:06:50;0.80;99.90
13256;DHT22;37913;48.370;10.930;2023-01-24T00:09:17;0.80;99.90
13256;DHT22;37913;48.370;10.930;2023-01-24T00:11:45;0.80;99.90
13256;DHT22;37913;48.370;10.930;2023-01-24T00:14:12;0.80;99.90
13256;DHT22;37913;48.370;10.930;2023-01-24T00:16:39;0.80;99.90
13256;DHT22;37913;48.370;10.930;2023-01-24T00:19:06;0.80;99.90
13256;DHT22;37913;48.370;10.930;2023-01-24T00:21:32;0.70;99.90
13256;DHT22;37913;48.370;10.930;2023-01-24T00:23:59;0.70;99.90
13256;DHT22;37913;48.370;10.930;2023-01-24T00:26:27;1.70;99.90
13256;DHT22;37913;48.370;10.930;2023-01-24T00:28:58;0.70;99.90
13256;DHT22;37913;48.370;10.930;2023-01-24T00:31:26;0.80;99.90
13256;DHT22;37913;48.370;10.930;2023-01-24T00:33:53;0.80;99.90
13256;DHT22;37913;48.370;10.930;2023-01-24T00:36:20;0.80;99.90
13256;DHT22;37913;48.370;10.930;2023-01-24T00:38:47;0.70;99.90
13256;DHT22;37913;48.370;10.930;2023-01-24T00:41:14;0.70;99.90
13256;DHT22;37913;48.370;10.930;2023-01-24T00:43:41;0.70;99.90
13256;DHT22;37913;48.370;10.930;2023-01-24T00:46:09;0.70;99.90
13256;DHT22;37913;48.370;10.930;2023-01-24T00:48:37;0.80;99.90
13256;DHT22;37913;48.370;10.930;2023-01-24T00:51:04;0.70;99.90
13256;DHT22;37913;48.370;10.930;2023-01-24T00:53:31;0.80;99.90
13256;DHT22;37913;48.370;10.930;2023-01-24T00:55:58;0.70;99.90
13256;DHT22;37913;48.370;10.930;2023-01-24T00:58:25;0.80;99.90
13256;DHT22;37913;48.370;10.930;2023-01-24T01:00:55;0.80;99.90
13256;DHT22;37913;48.370;10.930;2023-01-24T01:03:26;0.70;99.90
13256;DHT22;37913;48.370;10.930;2023-01-24T01:05:58;0.80;99.90
13256;DHT22;37913;48.370;10.930;2023-01-24T01:08:25;0.80;99.90
13256;DHT22;37913;48.370;10.930;2023-01-24T01:10:51;0.80;99.90
13256;DHT22;37913;48.370;10.930;2023-01-24T01:13:18;1.80;99.90
13256;DHT22;37913;48.370;10.930;2023-01-24T01:15:45;0.70;99.90
13256;DHT22;37913;48.370;10.930;2023-01-24T01:18:12;1.60;99.90
13256;DHT22;37913;48.370;10.930;2023-01-24T01:20:40;0.80;99.90
13256;DHT22;37913;48.370;10.930;2023-01-24T01:23:07;0.80;99.90
13256;DHT22;37913;48.370;10.930;2023-01-24T01:25:38;0.80;99.90
13256;DHT22;37913;48.370;10.930;2023-01-24T01:28:05;0.80;99.90
13256;DHT22;37913;48.370;10.930;2023-01-24T01:30:31;0.80;99.90
13256;DHT22;37913;48.370;10.930;2023-01-24T01:32:59;0.70;99.90
13256;DHT22;37913;48.370;10.930;2023-01-24T01:35:26;0.80;99.90
13256;DHT22;37913;48.370;10.930;2023-01-24T01:37:54;0.80;99.90
13256;DHT22;37913;48.370;10.930;2023-01-24T01:40:21;1.90;99.90
13256;DHT22;37913;48.370;10.930;2023-01-24T01:42:53;0.80;99.90
13256;DHT22;37913;48.370;10.930;2023-01-24T01:45:37;0.80;99.90
13256;DHT22;37913;48.370;10.930;2023-01-24T01:48:17;0.80;99.90
13256;DHT22;37913;48.370;10.930;2023-01-24T01:50:49;0.70;99.90
13256;DHT22;37913;48.370;10.930;2023-01-24T01:53:21;0.80;99.90
13256;DHT22;37913;48.370;10.930;2023-01-24T01:55:54;0.80;99.90
13256;DHT22;37913;48.370;10.930;2023-01-24T01:58:25;0.80;99.90
13256;DHT22;37913;48.370;10.930;2023-01-24T02:00:52;0.80;99.90
13256;DHT22;37913;48.370;10.930;2023-01-24T02:03:27;0.70;99.90
13256;DHT22;37913;48.370;10.930;2023-01-24T02:09:09;0.80;99.90
13256;DHT22;37913;48.370;10.930;2023-01-24T02:11:36;0.70;99.90
13256;DHT22;37913;48.370;10.930;2023-01-24T02:14:06;0.80;99.90
13256;DHT22;37913;48.370;10.930;2023-01-24T02:16:51;0.80;99.90
13256;DHT22;37913;48.370;10.930;2023-01-24T02:19:31;0.80;99.90
13256;DHT22;37913;48.370;10.930;2023-01-24T02:22:07;0.80;99.90
13256;DHT22;37913;48.370;10.930;2023-01-24T02:24:43;0.80;99.90
13256;DHT22;37913;48.370;10.930;2023-01-24T02:27:13;0.80;99.90
13256;DHT22;37913;48.370;10.930;2023-01-24T02:29:40;0.80;99.90
13256;DHT22;37913;48.370;10.930;2023-01-24T02:32:07;0.80;99.90
13256;DHT22;37913;48.370;10.930;2023-01-24T02:34:34;0.80;99.90
13256;DHT22;37913;48.370;10.930;2023-01-24T02:37:05;0.80;99.90
13256;DHT22;37913;48.370;10.930;2023-01-24T02:39:39;0.80;99.90
13256;DHT22;37913;48.370;10.930;2023-01-24T02:42:09;0.80;99.90
13256;DHT22;37913;48.370;10.930;2023-01-24T02:44:48;0.90;99.90
13256;DHT22;37913;48.370;10.930;2023-01-24T02:47:18;0.80;99.90
13256;DHT22;37913;48.370;10.930;2023-01-24T02:49:45;0.90;99.90
13256;DHT22;37913;48.370;10.930;2023-01-24T02:52:11;0.90;99.90
13256;DHT22;37913;48.370;10.930;2023-01-24T02:54:56;0.90;99.90
13256;DHT22;37913;48.370;10.930;2023-01-24T02:57:22;1.80;99.90
13256;DHT22;37913;48.370;10.930;2023-01-24T03:00:09;0.90;99.90
13256;DHT22;37913;48.370;10.930;2023-01-24T03:02:38;0.90;99.90
13256;DHT22;37913;48.370;10.930;2023-01-24T03:05:05;0.90;99.90
13256;DHT22;37913;48.370;10.930;2023-01-24T03:07:32;0.90;99.90
13256;DHT22;37913;48.370;10.930;2023-01-24T03:10:09;1.30;99.90
13256;DHT22;37913;48.370;10.930;2023-01-24T03:12:36;0.90;99.90
13256;DHT22;37913;48.370;10.930;2023-01-24T03:15:22;0.90;99.90
13256;DHT22;37913;48.370;10.930;2023-01-24T03:18:06;0.90;99.90
13256;DHT22;37913;48.370;10.930;2023-01-24T03:20:50;0.90;99.90
13256;DHT22;37913;48.370;10.930;2023-01-24T03:23:35;0.90;99.90
13256;DHT22;37913;48.370;10.930;2023-01-24T03:26:21;0.90;99.90
13256;DHT22;37913;48.370;10.930;2023-01-24T03:29:05;0.90;99.90
13256;DHT22;37913;48.370;10.930;2023-01-24T03:31:51;0.90;99.90
13256;DHT22;37913;48.370;10.930;2023-01-24T03:34:36;0.90;99.90
13256;DHT22;37913;48.370;10.930;2023-01-24T03:37:11;0.90;99.90
13256;DHT22;37913;48.370;10.930;2023-01-24T03:39:38;1.00;99.90
13256;DHT22;37913;48.370;10.930;2023-01-24T03:42:25;0.90;99.90
13256;DHT22;37913;48.370;10.930;2023-01-24T03:44:53;0.90;99.90
13256;DHT22;37913;48.370;10.930;2023-01-24T03:47:21;0.90;99.90
13256;DHT22;37913;48.370;10.930;2023-01-24T03:49:48;0.90;99.90
13256;DHT22;37913;48.370;10.930;2023-01-24T03:52:32;0.90;99.90
13256;DHT22;37913;48.370;10.930;2023-01-24T03:55:00;0.90;99.90
13256;DHT22;37913;48.370;10.930;2023-01-24T03:57:28;0.90;99.90
13256;DHT22;37913;48.370;10.930;2023-01-24T03:59:55;0.90;99.90
13256;DHT22;37913;48.370;10.930;2023-01-24T04:02:23;0.90;99.90
13256;DHT22;37913;48.370;10.930;2023-01-24T04:04:50;-1.00;99.90
13256;DHT22;37913;48.370;10.930;2023-01-24T04:07:35;0.80;99.90
13256;DHT22;37913;48.370;10.930;2023-01-24T04:10:02;0.90;99.90
13256;DHT22;37913;48.370;10.930;2023-01-24T04:12:29;0.90;99.90
13256;DHT22;37913;48.370;10.930;2023-01-24T04:14:58;0.90;99.90
13256;DHT22;37913;48.370;10.930;2023-01-24T04:17:27;0.90;99.90
13256;DHT22;37913;48.370;10.930;2023-01-24T04:19:54;0.90;99.90
13256;DHT22;37913;48.370;10.930;2023-01-24T04:22:21;0.80;99.90
13256;DHT22;37913;48.370;10.930;2023-01-24T04:24:48;0.80;99.90
13256;DHT22;37913;48.370;10.930;2023-01-24T04:27:15;0.90;99.90
13256;DHT22;37913;48.370;10.930;2023-01-24T04:29:41;0.90;99.90
13256;DHT22;37913;48.370;10.930;2023-01-24T04:32:08;0.90;99.90
13256;DHT22;37913;48.370;10.930;2023-01-24T04:34:37;0.90;99.90
13256;DHT22;37913;48.370;10.930;2023-01-24T04:37:04;0.90;99.90
13256;DHT22;37913;48.370;10.930;2023-01-24T04:39:31;0.80;99.90
13256;DHT22;37913;48.370;10.930;2023-01-24T04:41:58;0.90;99.90
13256;DHT22;37913;48.370;10.930;2023-01-24T04:44:25;0.90;99.90
13256;DHT22;37913;48.370;10.930;2023-01-24T04:46:51;0.80;99.90
13256;DHT22;37913;48.370;10.930;2023-01-24T04:49:18;0.90;99.90
13256;DHT22;37913;48.370;10.930;2023-01-24T04:51:48;0.90;99.90
13256;DHT22;37913;48.370;10.930;2023-01-24T04:54:15;0.90;99.90
13256;DHT22;37913;48.370;10.930;2023-01-24T04:56:42;0.80;99.90
13256;DHT22;37913;48.370;10.930;2023-01-24T04:59:11;0.90;99.90
13256;DHT22;37913;48.370;10.930;2023-01-24T05:01:39;0.90;99.90
13256;DHT22;37913;48.370;10.930;2023-01-24T05:04:06;0.90;99.90
13256;DHT22;37913;48.370;10.930;2023-01-24T05:06:34;0.90;99.90
13256;DHT22;37913;48.370;10.930;2023-01-24T05:09:03;0.90;99.90
13256;DHT22;37913;48.370;10.930;2023-01-24T05:11:30;0.90;99.90
13256;DHT22;37913;48.370;10.930;2023-01-24T05:13:56;0.90;99.90
13256;DHT22;37913;48.370;10.930;2023-01-24T05:16:24;0.80;99.90
13256;DHT22;37913;48.370;10.930;2023-01-24T05:18:51;0.80;99.90
13256;DHT22;37913;48.370;10.930;2023-01-24T05:21:18;0.80;99.90
13256;DHT22;37913;48.370;10.930;2023-01-24T05:23:48;0.80;99.90
13256;DHT22;37913;48.370;10.930;2023-01-24T05:26:19;1.50;99.90
13256;DHT22;37913;48.370;10.930;2023-01-24T05:28:47;0.90;99.90
13256;DHT22;37913;48.370;10.930;2023-01-24T05:31:14;0.90;99.90
13256;DHT22;37913;48.370;10.930;2023-01-24T05:33:41;1.10;99.90
13256;DHT22;37913;48.370;10.930;2023-01-24T05:36:10;0.90;99.90
13256;DHT22;37913;48.370;10.930;2023-01-24T05:38:37;0.90;99.90
13256;DHT22;37913;48.370;10.930;2023-01-24T05:41:06;0.90;99.90
13256;DHT22;37913;48.370;10.930;2023-01-24T05:43:35;0.90;99.90
13256;DHT22;37913;48.370;10.930;2023-01-24T05:46:04;0.90;99.90
13256;DHT22;37913;48.370;10.930;2023-01-24T05:48:31;0.90;99.90
13256;DHT22;37913;48.370;10.930;2023-01-24T05:51:00;0.90;99.90
13256;DHT22;37913;48.370;10.930;2023-01-24T05:53:28;0.90;99.90
13256;DHT22;37913;48.370;10.930;2023-01-24T05:55:56;0.90;99.90
13256;DHT22;37913;48.370;10.930;2023-01-24T05:58:24;1.30;99.90
13256;DHT22;37913;48.370;10.930;2023-01-24T06:00:52;1.00;99.90
13256;DHT22;37913;48.370;10.930;2023-01-24T06:03:19;0.90;99.90
13256;DHT22;37913;48.370;10.930;2023-01-24T06:05:47;1.00;99.90
13256;DHT22;37913;48.370;10.930;2023-01-24T06:08:15;1.00;99.90
13256;DHT22;37913;48.370;10.930;2023-01-24T06:10:42;1.00;99.90
13256;DHT22;37913;48.370;10.930;2023-01-24T06:13:09;0.90;99.90
13256;DHT22;37913;48.370;10.930;2023-01-24T06:15:37;1.00;99.90
13256;DHT22;37913;48.370;10.930;2023-01-24T06:18:06;1.00;99.90
13256;DHT22;37913;48.370;10.930;2023-01-24T06:20:33;0.90;99.90
13256;DHT22;37913;48.370;10.930;2023-01-24T06:23:03;1.00;99.90
13256;DHT22;37913;48.370;10.930;2023-01-24T06:25:31;0.90;99.90
13256;DHT22;37913;48.370;10.930;2023-01-24T06:27:59;1.00;99.90
13256;DHT22;37913;48.370;10.930;2023-01-24T06:30:26;1.00;99.90
13256;DHT22;37913;48.370;10.930;2023-01-24T06:33:17;1.00;99.90
13256;DHT22;37913;48.370;10.930;2023-01-24T06:36:14;1.00;99.90
13256;DHT22;37913;48.370;10.930;2023-01-24T06:38:44;1.00;99.90
13256;DHT22;37913;48.370;10.930;2023-01-24T06:41:14;0.90;99.90
13256;DHT22;37913;48.370;10.930;2023-01-24T06:43:42;1.00;99.90
13256;DHT22;37913;48.370;10.930;2023-01-24T06:46:09;1.00;99.90
13256;DHT22;37913;48.370;10.930;2023-01-24T06:48:38;0.90;99.90
13256;DHT22;37913;48.370;10.930;2023-01-24T06:51:12;0.90;99.90
13256;DHT22;37913;48.370;10.930;2023-01-24T06:53:40;0.90;99.90
13256;DHT22;37913;48.370;10.930;2023-01-24T06:56:07;0.90;99.90
13256;DHT22;37913;48.370;10.930;2023-01-24T06:58:41;0.90;99.90
13256;DHT22;37913;48.370;10.930;2023-01-24T07:01:08;0.90;99.90
13256;DHT22;37913;48.370;10.930;2023-01-24T07:03:34;0.90;99.90
13256;DHT22;37913;48.370;10.930;2023-01-24T07:06:03;0.90;99.90
13256;DHT22;37913;48.370;10.930;2023-01-24T07:08:30;0.90;99.90
13256;DHT22;37913;48.370;10.930;2023-01-24T07:10:57;1.20;99.90
13256;DHT22;37913;48.370;10.930;2023-01-24T07:13:26;0.90;99.90
13256;DHT22;37913;48.370;10.930;2023-01-24T07:15:53;0.90;99.90
13256;DHT22;37913;48.370;10.930;2023-01-24T07:18:20;1.00;99.90
13256;DHT22;37913;48.370;10.930;2023-01-24T07:20:48;0.90;99.90
13256;DHT22;37913;48.370;10.930;2023-01-24T07:23:22;0.90;99.90
13256;DHT22;37913;48.370;10.930;2023-01-24T07:25:51;0.90;99.90
13256;DHT22;37913;48.370;10.930;2023-01-24T07:28:19;0.90;99.90
13256;DHT22;37913;48.370;10.930;2023-01-24T07:30:46;1.00;99.90
13256;DHT22;37913;48.370;10.930;2023-01-24T07:33:13;1.00;99.90
13256;DHT22;37913;48.370;10.930;2023-01-24T07:35:40;0.90;99.90
13256;DHT22;37913;48.370;10.930;2023-01-24T07:38:07;0.90;99.90
13256;DHT22;37913;48.370;10.930;2023-01-24T07:40:37;0.90;99.90
13256;DHT22;37913;48.370;10.930;2023-01-24T07:43:04;1.00;99.90
13256;DHT22;37913;48.370;10.930;2023-01-24T07:45:37;1.00;99.90
13256;DHT22;37913;48.370;10.930;2023-01-24T07:48:12;1.00;99.90
13256;DHT22;37913;48.370;10.930;2023-01-24T07:50:39;1.00;99.90
13256;DHT22;37913;48.370;10.930;2023-01-24T07:53:06;1.00;99.90
13256;DHT22;37913;48.370;10.930;2023-01-24T07:55:33;1.00;99.90
13256;DHT22;37913;48.370;10.930;2023-01-24T07:58:02;1.00;99.90
13256;DHT22;37913;48.370;10.930;2023-01-24T08:00:30;1.10;99.90
13256;DHT22;37913;48.370;10.930;2023-01-24T08:02:57;1.00;99.90
13256;DHT22;37913;48.370;10.930;2023-01-24T08:05:25;1.20;99.90
13256;DHT22;37913;48.370;10.930;2023-01-24T08:07:53;1.10;99.90
13256;DHT22;37913;48.370;10.930;2023-01-24T08:10:21;1.20;99.90
13256;DHT22;37913;48.370;10.930;2023-01-24T08:12:49;1.00;99.90
13256;DHT22;37913;48.370;10.930;2023-01-24T08:15:20;2.10;99.90
13256;DHT22;37913;48.370;10.930;2023-01-24T08:17:47;1.10;99.90
13256;DHT22;37913;48.370;10.930;2023-01-24T08:20:15;1.00;99.90
13256;DHT22;37913;48.370;10.930;2023-01-24T08:22:42;1.10;99.90
13256;DHT22;37913;48.370;10.930;2023-01-24T08:25:09;1.10;99.90
13256;DHT22;37913;48.370;10.930;2023-01-24T08:27:40;1.00;99.90
13256;DHT22;37913;48.370;10.930;2023-01-24T08:30:11;1.00;99.90
13256;DHT22;37913;48.370;10.930;2023-01-24T08:32:39;1.10;99.90
13256;DHT22;37913;48.370;10.930;2023-01-24T08:35:08;1.10;99.90
13256;DHT22;37913;48.370;10.930;2023-01-24T08:37:35;1.10;99.90
13256;DHT22;37913;48.370;10.930;2023-01-24T08:40:02;1.10;99.90
13256;DHT22;37913;48.370;10.930;2023-01-24T08:42:29;1.20;99.90
13256;DHT22;37913;48.370;10.930;2023-01-24T08:44:56;2.60;99.90
13256;DHT22;37913;48.370;10.930;2023-01-24T08:47:23;1.20;99.90
13256;DHT22;37913;48.370;10.930;2023-01-24T08:49:51;1.50;99.90
13256;DHT22;37913;48.370;10.930;2023-01-24T08:52:18;1.30;99.90
13256;DHT22;37913;48.370;10.930;2023-01-24T08:54:45;1.30;99.90
13256;DHT22;37913;48.370;10.930;2023-01-24T08:57:12;1.30;99.90
13256;DHT22;37913;48.370;10.930;2023-01-24T08:59:40;1.30;99.90
13256;DHT22;37913;48.370;10.930;2023-01-24T09:02:08;1.40;99.90
13256;DHT22;37913;48.370;10.930;2023-01-24T09:04:36;1.40;99.90
13256;DHT22;37913;48.370;10.930;2023-01-24T09:07:05;1.40;99.90
13256;DHT22;37913;48.370;10.930;2023-01-24T09:09:32;1.40;99.90
13256;DHT22;37913;48.370;10.930;2023-01-24T09:12:04;1.40;99.90
13256;DHT22;37913;48.370;10.930;2023-01-24T09:14:32;1.40;99.90
13256;DHT22;37913;48.370;10.930;2023-01-24T09:17:00;1.40;99.90
13256;DHT22;37913;48.370;10.930;2023-01-24T09:19:27;1.40;99.90
13256;DHT22;37913;48.370;10.930;2023-01-24T09:21:54;1.40;99.90
13256;DHT22;37913;48.370;10.930;2023-01-24T09:24:24;1.60;99.90
13256;DHT22;37913;48.370;10.930;2023-01-24T09:26:52;1.60;99.90
13256;DHT22;37913;48.370;10.930;2023-01-24T09:29:19;1.60;99.90
13256;DHT22;37913;48.370;10.930;2023-01-24T09:31:47;1.50;99.90
13256;DHT22;37913;48.370;10.930;2023-01-24T09:34:14;1.50;99.90
13256;DHT22;37913;48.370;10.930;2023-01-24T09:36:41;1.60;99.90
13256;DHT22;37913;48.370;10.930;2023-01-24T09:39:14;1.40;99.90
13256;DHT22;37913;48.370;10.930;2023-01-24T09:41:55;1.60;99.90
13256;DHT22;37913;48.370;10.930;2023-01-24T09:44:31;1.70;99.90
13256;DHT22;37913;48.370;10.930;2023-01-24T09:47:04;1.80;99.90
13256;DHT22;37913;48.370;10.930;2023-01-24T09:49:39;1.80;99.90
13256;DHT22;37913;48.370;10.930;2023-01-24T09:52:14;1.70;99.90
13256;DHT22;37913;48.370;10.930;2023-01-24T09:54:48;1.80;99.90
13256;DHT22;37913;48.370;10.930;2023-01-24T09:57:26;2.60;99.90
13256;DHT22;37913;48.370;10.930;2023-01-24T09:59:58;2.20;99.90
13256;DHT22;37913;48.370;10.930;2023-01-24T10:02:29;1.70;99.90
13256;DHT22;37913;48.370;10.930;2023-01-24T10:04:59;1.60;99.90
13256;DHT22;37913;48.370;10.930;2023-01-24T10:07:50;1.70;99.90
13256;DHT22;37913;48.370;10.930;2023-01-24T10:10:33;1.60;99.90
13256;DHT22;37913;48.370;10.930;2023-01-24T10:13:17;1.80;99.90
13256;DHT22;37913;48.370;10.930;2023-01-24T10:15:57;1.70;99.90
13256;DHT22;37913;48.370;10.930;2023-01-24T10:18:38;1.80;99.90
13256;DHT22;37913;48.370;10.930;2023-01-24T10:21:17;2.20;99.90
13256;DHT22;37913;48.370;10.930;2023-01-24T10:23:48;1.80;99.90
13256;DHT22;37913;48.370;10.930;2023-01-24T10:26:19;1.80;99.90
13256;DHT22;37913;48.370;10.930;2023-01-24T10:28:50;1.80;99.90
13256;DHT22;37913;48.370;10.930;2023-01-24T10:31:20;1.80;99.90
13256;DHT22;37913;48.370;10.930;2023-01-24T10:33:51;1.90;99.90
13256;DHT22;37913;48.370;10.930;2023-01-24T10:36:25;2.00;99.90
13256;DHT22;37913;48.370;10.930;2023-01-24T10:38:52;2.00;99.90
13256;DHT22;37913;48.370;10.930;2023-01-24T10:41:21;1.90;99.90
13256;DHT22;37913;48.370;10.930;2023-01-24T10:43:54;1.80;99.90
13256;DHT22;37913;48.370;10.930;2023-01-24T10:46:49;1.80;99.90
13256;DHT22;37913;48.370;10.930;2023-01-24T10:49:23;1.90;99.90
13256;DHT22;37913;48.370;10.930;2023-01-24T10:52:12;2.20;99.90
13256;DHT22;37913;48.370;10.930;2023-01-24T10:54:44;1.70;99.90
13256;DHT22;37913;48.370;10.930;2023-01-24T10:57:18;1.90;99.90
13256;DHT22;37913;48.370;10.930;2023-01-24T10:59:51;1.90;99.90
13256;DHT22;37913;48.370;10.930;2023-01-24T11:02:21;1.80;99.90
13256;DHT22;37913;48.370;10.930;2023-01-24T11:04:52;1.90;99.90
13256;DHT22;37913;48.370;10.930;2023-01-24T11:07:28;1.90;99.90
13256;DHT22;37913;48.370;10.930;2023-01-24T11:09:59;1.80;99.90
13256;DHT22;37913;48.370;10.930;2023-01-24T11:12:27;2.90;99.90
13256;DHT22;37913;48.370;10.930;2023-01-24T11:14:56;3.30;99.90
13256;DHT22;37913;48.370;10.930;2023-01-24T11:17:34;2.10;99.90
13256;DHT22;37913;48.370;10.930;2023-01-24T11:20:15;2.50;99.90
13256;DHT22;37913;48.370;10.930;2023-01-24T11:22:49;2.20;99.90
13256;DHT22;37913;48.370;10.930;2023-01-24T11:25:17;2.20;99.90
13256;DHT22;37913;48.370;10.930;2023-01-24T11:27:47;2.20;99.90
13256;DHT22;37913;48.370;10.930;2023-01-24T11:30:19;3.10;99.90
13256;DHT22;37913;48.370;10.930;2023-01-24T11:32:57;2.10;99.90
13256;DHT22;37913;48.370;10.930;2023-01-24T11:35:29;1.90;99.90
13256;DHT22;37913;48.370;10.930;2023-01-24T11:38:18;1.90;99.90
13256;DHT22;37913;48.370;10.930;2023-01-24T11:40:57;2.00;99.90
13256;DHT22;37913;48.370;10.930;2023-01-24T11:43:43;2.00;99.90
13256;DHT22;37913;48.370;10.930;2023-01-24T11:46:31;2.00;99.90
13256;DHT22;37913;48.370;10.930;2023-01-24T11:49:20;2.00;99.90
13256;DHT22;37913;48.370;10.930;2023-01-24T11:51:56;2.00;99.90
13256;DHT22;37913;48.370;10.930;2023-01-24T11:54:41;2.30;99.90
13256;DHT22;37913;48.370;10.930;2023-01-24T11:57:18;2.00;99.90
13256;DHT22;37913;48.370;10.930;2023-01-24T11:59:57;2.00;99.90
13256;DHT22;37913;48.370;10.930;2023-01-24T12:02:40;1.90;99.90
13256;DHT22;37913;48.370;10.930;2023-01-24T12:05:25;2.10;99.90
13256;DHT22;37913;48.370;10.930;2023-01-24T12:08:09;2.00;99.90
13256;DHT22;37913;48.370;10.930;2023-01-24T12:10:51;2.20;99.90
13256;DHT22;37913;48.370;10.930;2023-01-24T12:13:30;2.20;99.90
13256;DHT22;37913;48.370;10.930;2023-01-24T12:16:08;2.20;99.90
13256;DHT22;37913;48.370;10.930;2023-01-24T12:18:53;2.20;99.90
13256;DHT22;37913;48.370;10.930;2023-01-24T12:21:24;3.20;99.90
13256;DHT22;37913;48.370;10.930;2023-01-24T12:23:54;2.30;99.90
13256;DHT22;37913;48.370;10.930;2023-01-24T12:26:25;2.20;99.90
13256;DHT22;37913;48.370;10.930;2023-01-24T12:29:00;2.20;99.90
13256;DHT22;37913;48.370;10.930;2023-01-24T12:31:40;2.10;99.90
13256;DHT22;37913;48.370;10.930;2023-01-24T12:34:32;2.00;99.90
13256;DHT22;37913;48.370;10.930;2023-01-24T12:37:04;2.00;99.90
13256;DHT22;37913;48.370;10.930;2023-01-24T12:39:43;2.00;99.90
13256;DHT22;37913;48.370;10.930;2023-01-24T12:42:16;2.10;99.90
13256;DHT22;37913;48.370;10.930;2023-01-24T12:44:49;2.10;99.90
13256;DHT22;37913;48.370;10.930;2023-01-24T12:47:25;2.20;99.90
13256;DHT22;37913;48.370;10.930;2023-01-24T12:50:07;2.10;99.90
13256;DHT22;37913;48.370;10.930;2023-01-24T12:52:43;2.10;99.90
13256;DHT22;37913;48.370;10.930;2023-01-24T12:55:14;2.20;99.90
13256;DHT22;37913;48.370;10.930;2023-01-24T12:57:45;2.10;99.90
13256;DHT22;37913;48.370;10.930;2023-01-24T13:00:17;2.50;99.90
13256;DHT22;37913;48.370;10.930;2023-01-24T13:03:01;2.30;99.90
13256;DHT22;37913;48.370;10.930;2023-01-24T13:05:45;2.30;99.90
13256;DHT22;37913;48.370;10.930;2023-01-24T13:08:22;2.60;99.90
13256;DHT22;37913;48.370;10.930;2023-01-24T13:11:00;2.20;99.90
13256;DHT22;37913;48.370;10.930;2023-01-24T13:13:38;3.00;99.90
13256;DHT22;37913;48.370;10.930;2023-01-24T13:19:14;2.20;99.90
13256;DHT22;37913;48.370;10.930;2023-01-24T13:21:51;2.80;99.90
13256;DHT22;37913;48.370;10.930;2023-01-24T13:24:41;2.20;99.90
13256;DHT22;37913;48.370;10.930;2023-01-24T13:27:31;2.10;99.90
13256;DHT22;37913;48.370;10.930;2023-01-24T13:30:30;2.10;99.90
13256;DHT22;37913;48.370;10.930;2023-01-24T13:33:01;2.10;99.90
13256;DHT22;37913;48.370;10.930;2023-01-24T13:35:30;2.20;99.90
13256;DHT22;37913;48.370;10.930;2023-01-24T13:38:03;2.20;99.90
13256;DHT22;37913;48.370;10.930;2023-01-24T13:40:32;2.30;99.90
13256;DHT22;37913;48.370;10.930;2023-01-24T13:43:03;2.30;99.90
13256;DHT22;37913;48.370;10.930;2023-01-24T13:45:49;2.20;99.90
13256;DHT22;37913;48.370;10.930;2023-01-24T13:48:44;2.30;99.90
13256;DHT22;37913;48.370;10.930;2023-01-24T13:51:48;2.40;99.90
13256;DHT22;37913;48.370;10.930;2023-01-24T13:54:37;2.60;99.90
13256;DHT22;37913;48.370;10.930;2023-01-24T13:57:19;2.60;99.90
13256;DHT22;37913;48.370;10.930;2023-01-24T14:02:53;2.80;99.90
13256;DHT22;37913;48.370;10.930;2023-01-24T14:05:42;2.90;99.90
13256;DHT22;37913;48.370;10.930;2023-01-24T14:08:37;2.70;99.90
13256;DHT22;37913;48.370;10.930;2023-01-24T14:14:31;2.80;99.90
13256;DHT22;37913;48.370;10.930;2023-01-24T14:19:59;2.70;99.90
13256;DHT22;37913;48.370;10.930;2023-01-24T14:22:37;2.70;99.90
13256;DHT22;37913;48.370;10.930;2023-01-24T14:25:19;2.60;99.90
13256;DHT22;37913;48.370;10.930;2023-01-24T14:27:54;2.40;99.90
13256;DHT22;37913;48.370;10.930;2023-01-24T14:30:32;2.40;99.90
13256;DHT22;37913;48.370;10.930;2023-01-24T14:33:06;2.50;99.90
13256;DHT22;37913;48.370;10.930;2023-01-24T14:35:53;2.70;99.90
13256;DHT22;37913;48.370;10.930;2023-01-24T14:38:21;2.80;99.90
13256;DHT22;37913;48.370;10.930;2023-01-24T14:40:50;2.70;99.90
13256;DHT22;37913;48.370;10.930;2023-01-24T14:43:18;2.50;99.90
13256;DHT22;37913;48.370;10.930;2023-01-24T14:45:47;2.50;99.90
13256;DHT22;37913;48.370;10.930;2023-01-24T14:48:22;2.40;99.90
13256;DHT22;37913;48.370;10.930;2023-01-24T14:50:57;2.40;99.90
13256;DHT22;37913;48.370;10.930;2023-01-24T14:53:26;2.40;99.90
13256;DHT22;37913;48.370;10.930;2023-01-24T14:55:56;2.30;99.90
13256;DHT22;37913;48.370;10.930;2023-01-24T14:58:27;2.30;99.90
13256;DHT22;37913;48.370;10.930;2023-01-24T15:00:57;2.30;99.90
13256;DHT22;37913;48.370;10.930;2023-01-24T15:03:28;2.30;99.90
13256;DHT22;37913;48.370;10.930;2023-01-24T15:05:58;2.80;99.90
13256;DHT22;37913;48.370;10.930;2023-01-24T15:08:25;2.40;99.90
13256;DHT22;37913;48.370;10.930;2023-01-24T15:10:55;2.40;99.90
13256;DHT22;37913;48.370;10.930;2023-01-24T15:13:32;2.40;99.90
13256;DHT22;37913;48.370;10.930;2023-01-24T15:16:03;2.50;99.90
13256;DHT22;37913;48.370;10.930;2023-01-24T15:18:42;2.50;99.90
13256;DHT22;37913;48.370;10.930;2023-01-24T15:21:28;2.50;99.90
13256;DHT22;37913;48.370;10.930;2023-01-24T15:23:57;2.50;99.90
13256;DHT22;37913;48.370;10.930;2023-01-24T15:26:38;2.50;99.90
13256;DHT22;37913;48.370;10.930;2023-01-24T15:29:44;3.10;99.90
13256;DHT22;37913;48.370;10.930;2023-01-24T15:32:27;2.50;99.90
13256;DHT22;37913;48.370;10.930;2023-01-24T15:35:24;2.40;99.90
13256;DHT22;37913;48.370;10.930;2023-01-24T15:38:13;2.30;99.90
13256;DHT22;37913;48.370;10.930;2023-01-24T15:40:50;2.40;99.90
13256;DHT22;37913;48.370;10.930;2023-01-24T15:43:22;2.40;99.90
13256;DHT22;37913;48.370;10.930;2023-01-24T15:46:21;2.30;99.90
13256;DHT22;37913;48.370;10.930;2023-01-24T15:49:22;2.30;99.90
13256;DHT22;37913;48.370;10.930;2023-01-24T15:52:16;2.30;99.90
13256;DHT22;37913;48.370;10.930;2023-01-24T15:54:45;2.30;99.90
13256;DHT22;37913;48.370;10.930;2023-01-24T15:57:19;2.30;99.90
13256;DHT22;37913;48.370;10.930;2023-01-24T15:59:51;2.30;99.90
13256;DHT22;37913;48.370;10.930;2023-01-24T16:02:18;2.40;99.90
13256;DHT22;37913;48.370;10.930;2023-01-24T16:04:46;2.40;99.90
13256;DHT22;37913;48.370;10.930;2023-01-24T16:07:14;3.30;99.90
13256;DHT22;37913;48.370;10.930;2023-01-24T16:09:41;2.70;99.90
13256;DHT22;37913;48.370;10.930;2023-01-24T16:12:12;2.30;99.90
13256;DHT22;37913;48.370;10.930;2023-01-24T16:14:44;2.20;99.90
13256;DHT22;37913;48.370;10.930;2023-01-24T16:17:12;2.30;99.90
13256;DHT22;37913;48.370;10.930;2023-01-24T16:19:39;2.20;99.90